UAE8766 OMDB-VABB
Flight info
| Callsign | UAE8766 |
|---|---|
| Flight time | N/A |
| Altitude | 35000 |
| Route | IVURO M677 LALDO B505 NADSO A777 VAXIM L301 KARKU M638 EXOLU POKON2A |
| Aircraft | B77L/H-SDE1E2E3FGHIJ2J3J4J5M1RWXY/LB1D1 |
Departure
| Time | N/A |
|---|---|
| Airport | Dubai International Airport (OMDB) |
Arrival
| Time | 2026-04-29 16:31 |
|---|---|
| Airport | Chhatrapati Shivaji Maharaj International Airport (VABB) |
| Time | Latitude | Longitude | Altitude | Speed | Heading |
|---|---|---|---|---|---|
| 2026-04-29 16:13 | 19.42240 | 72.40868 | 17524 ft | 353 kts | 137° |
| 2026-04-29 16:13 | 19.40424 | 72.42586 | 16771 ft | 346 kts | 137° |
| 2026-04-29 16:14 | 19.38645 | 72.44268 | 16077 ft | 339 kts | 138° |
| 2026-04-29 16:14 | 19.36901 | 72.45918 | 15353 ft | 333 kts | 138° |
| 2026-04-29 16:14 | 19.35193 | 72.47532 | 14698 ft | 333 kts | 139° |
| 2026-04-29 16:14 | 19.33468 | 72.49163 | 14203 ft | 326 kts | 139° |
| 2026-04-29 16:15 | 19.31766 | 72.50771 | 13799 ft | 327 kts | 139° |
| 2026-04-29 16:15 | 19.30104 | 72.52339 | 13578 ft | 321 kts | 139° |
| 2026-04-29 16:15 | 19.28982 | 72.53400 | 13363 ft | 319 kts | 139° |
| 2026-04-29 16:15 | 19.26789 | 72.55469 | 12835 ft | 319 kts | 140° |
| 2026-04-29 16:16 | 19.25141 | 72.57024 | 12569 ft | 314 kts | 140° |
| 2026-04-29 16:16 | 19.23536 | 72.58538 | 12419 ft | 304 kts | 140° |
| 2026-04-29 16:16 | 19.22557 | 72.59573 | 12279 ft | 297 kts | 128° |
| 2026-04-29 16:16 | 19.21557 | 72.62237 | 11899 ft | 293 kts | 95° |
| 2026-04-29 16:17 | 19.21498 | 72.63652 | 11790 ft | 289 kts | 91° |
| 2026-04-29 16:17 | 19.21487 | 72.66502 | 11739 ft | 292 kts | 90° |
| 2026-04-29 16:17 | 19.21489 | 72.67934 | 11709 ft | 293 kts | 90° |
| 2026-04-29 16:17 | 19.21493 | 72.70102 | 11663 ft | 295 kts | 90° |
| 2026-04-29 16:18 | 19.21493 | 72.72269 | 11618 ft | 294 kts | 90° |
| 2026-04-29 16:18 | 19.21487 | 72.75162 | 11557 ft | 294 kts | 90° |
| 2026-04-29 16:18 | 19.21483 | 72.76591 | 11543 ft | 293 kts | 90° |
| 2026-04-29 16:18 | 19.21473 | 72.78758 | 11488 ft | 293 kts | 91° |
| 2026-04-29 16:19 | 19.21458 | 72.81610 | 11370 ft | 292 kts | 91° |
| 2026-04-29 16:19 | 19.21449 | 72.83064 | 11202 ft | 292 kts | 91° |
| 2026-04-29 16:19 | 19.21436 | 72.85182 | 10860 ft | 290 kts | 91° |
| 2026-04-29 16:19 | 19.21422 | 72.87320 | 10461 ft | 291 kts | 91° |
| 2026-04-29 16:20 | 19.21408 | 72.89463 | 10086 ft | 291 kts | 91° |
| 2026-04-29 16:20 | 19.21393 | 72.91600 | 9903 ft | 288 kts | 91° |
| 2026-04-29 16:20 | 19.21378 | 72.93718 | 9758 ft | 289 kts | 91° |
| 2026-04-29 16:20 | 19.21362 | 72.95850 | 9587 ft | 290 kts | 91° |
| 2026-04-29 16:21 | 19.21346 | 72.98001 | 9205 ft | 292 kts | 91° |
| 2026-04-29 16:21 | 19.21330 | 73.00163 | 8708 ft | 296 kts | 90° |
| 2026-04-29 16:21 | 19.21313 | 73.02342 | 8233 ft | 298 kts | 90° |
| 2026-04-29 16:21 | 19.21297 | 73.04550 | 7754 ft | 301 kts | 90° |
| 2026-04-29 16:22 | 19.21280 | 73.06772 | 7289 ft | 303 kts | 89° |
| 2026-04-29 16:22 | 19.21262 | 73.08996 | 6950 ft | 302 kts | 89° |
| 2026-04-29 16:22 | 19.21245 | 73.11207 | 6896 ft | 301 kts | 89° |
| 2026-04-29 16:22 | 19.21226 | 73.13424 | 6856 ft | 301 kts | 89° |
| 2026-04-29 16:23 | 19.21220 | 73.15627 | 6858 ft | 301 kts | 88° |
| 2026-04-29 16:23 | 19.21240 | 73.17824 | 6859 ft | 301 kts | 88° |
| 2026-04-29 16:23 | 19.21266 | 73.20044 | 6711 ft | 303 kts | 88° |
| 2026-04-29 16:23 | 19.21069 | 73.22253 | 6333 ft | 303 kts | 107° |
| 2026-04-29 16:24 | 19.20059 | 73.24175 | 5989 ft | 300 kts | 134° |
| 2026-04-29 16:24 | 19.18398 | 73.25443 | 5634 ft | 293 kts | 158° |
| 2026-04-29 16:24 | 19.16496 | 73.26181 | 5299 ft | 289 kts | 164° |
| 2026-04-29 16:24 | 19.14579 | 73.26792 | 4947 ft | 287 kts | 165° |
| 2026-04-29 16:25 | 19.12662 | 73.27314 | 4581 ft | 281 kts | 175° |
| 2026-04-29 16:25 | 19.10756 | 73.27118 | 4191 ft | 276 kts | 202° |
| 2026-04-29 16:25 | 19.09155 | 73.26075 | 3843 ft | 268 kts | 228° |
| 2026-04-29 16:25 | 19.08237 | 73.24401 | 3490 ft | 264 kts | 257° |
| 2026-04-29 16:26 | 19.08216 | 73.22492 | 3154 ft | 261 kts | 281° |
| 2026-04-29 16:26 | 19.08622 | 73.20623 | 3013 ft | 259 kts | 281° |
| 2026-04-29 16:26 | 19.08921 | 73.18750 | 2974 ft | 260 kts | 277° |
| 2026-04-29 16:26 | 19.09143 | 73.16851 | 2950 ft | 260 kts | 275° |
| 2026-04-29 16:27 | 19.09244 | 73.14935 | 2939 ft | 261 kts | 271° |
| 2026-04-29 16:27 | 19.09243 | 73.13021 | 2931 ft | 260 kts | 269° |
| 2026-04-29 16:27 | 19.09213 | 73.11129 | 2924 ft | 260 kts | 269° |
| 2026-04-29 16:27 | 19.09183 | 73.09226 | 2922 ft | 260 kts | 269° |
| 2026-04-29 16:28 | 19.09155 | 73.07314 | 2920 ft | 260 kts | 269° |
| 2026-04-29 16:28 | 19.09129 | 73.05399 | 2918 ft | 261 kts | 269° |
| 2026-04-29 16:28 | 19.09102 | 73.03517 | 2873 ft | 250 kts | 269° |
| 2026-04-29 16:28 | 19.09078 | 73.01671 | 2505 ft | 249 kts | 269° |
| 2026-04-29 16:29 | 19.09053 | 72.99853 | 2200 ft | 246 kts | 269° |
| 2026-04-29 16:29 | 19.09027 | 72.98057 | 1874 ft | 242 kts | 269° |
| 2026-04-29 16:29 | 19.09004 | 72.96326 | 1613 ft | 226 kts | 269° |
| 2026-04-29 16:29 | 19.08981 | 72.94723 | 1299 ft | 206 kts | 269° |
| 2026-04-29 16:30 | 19.08962 | 72.93285 | 1049 ft | 186 kts | 269° |
| 2026-04-29 16:30 | 19.08944 | 72.92003 | 817 ft | 163 kts | 268° |
| 2026-04-29 16:30 | 19.08928 | 72.90894 | 656 ft | 149 kts | 269° |
| 2026-04-29 16:30 | 19.08913 | 72.89822 | 455 ft | 140 kts | 269° |
| 2026-04-29 16:31 | 19.08896 | 72.88759 | 377 ft | 148 kts | 266° |
| 2026-04-29 16:31 | 19.08871 | 72.87759 | 51 ft | 126 kts | 271° |
| 2026-04-29 16:31 | 19.08871 | 72.86946 | 51 ft | 99 kts | 269° |
| 2026-04-29 16:31 | 19.08867 | 72.86394 | 48 ft | 49 kts | 268° |
| 2026-04-29 16:32 | 19.08860 | 72.86064 | 51 ft | 43 kts | 269° |
| 2026-04-29 16:32 | 19.08860 | 72.85820 | 53 ft | 30 kts | 270° |
| 2026-04-29 16:32 | 19.08899 | 72.85609 | 48 ft | 26 kts | 294° |
| 2026-04-29 16:32 | 19.08947 | 72.85499 | 50 ft | 11 kts | 301° |
| 2026-04-29 16:33 | 19.09027 | 72.85564 | 48 ft | 9 kts | 90° |
| 2026-04-29 16:33 | 19.09025 | 72.85633 | 48 ft | 10 kts | 90° |
| 2026-04-29 16:33 | 19.09027 | 72.85708 | 48 ft | 10 kts | 83° |
| 2026-04-29 16:34 | 19.09033 | 72.85786 | 53 ft | 11 kts | 91° |
| 2026-04-29 16:34 | 19.09031 | 72.85868 | 53 ft | 12 kts | 91° |
| 2026-04-29 16:34 | 19.09032 | 72.85955 | 53 ft | 12 kts | 90° |
| 2026-04-29 16:34 | 19.09032 | 72.86047 | 53 ft | 13 kts | 88° |
| 2026-04-29 16:35 | 19.09035 | 72.86139 | 53 ft | 13 kts | 88° |
| 2026-04-29 16:35 | 19.09038 | 72.86235 | 53 ft | 13 kts | 89° |
| 2026-04-29 16:35 | 19.09053 | 72.86329 | 47 ft | 13 kts | 58° |
| 2026-04-29 16:35 | 19.09114 | 72.86403 | 48 ft | 13 kts | 48° |
| 2026-04-29 16:36 | 19.09177 | 72.86476 | 49 ft | 13 kts | 44° |
| 2026-04-29 16:36 | 19.09238 | 72.86551 | 50 ft | 13 kts | 51° |
| 2026-04-29 16:36 | 19.09299 | 72.86625 | 47 ft | 13 kts | 47° |
| 2026-04-29 16:36 | 19.09362 | 72.86698 | 50 ft | 13 kts | 49° |
| 2026-04-29 16:37 | 19.09422 | 72.86771 | 50 ft | 13 kts | 52° |
| 2026-04-29 16:37 | 19.09408 | 72.86841 | 49 ft | 11 kts | 144° |
| 2026-04-29 16:37 | 19.09362 | 72.86884 | 54 ft | 6 kts | 137° |
| 2026-04-29 16:37 | 19.09336 | 72.86883 | 49 ft | 6 kts | 205° |
| 2026-04-29 16:38 | 19.09296 | 72.86849 | 48 ft | 4 kts | 223° |
| 2026-04-29 16:38 | 19.09283 | 72.86837 | 48 ft | 0 kts | 223° |